Hansa Visby — ELWR5 — position and weather

sailwx.info

Track history (hours):
 
Tides and Currents Weather Stations Pressure Air Temp Water Temp Dewpoint Dewpoint Depression Visibility Wind Speed Wind Dir Waves Ship Positions

Hansa Visby

Last reported at 2019-Jun-11 08:13 UTC. Time now 2019-Jun-20 17:49 UTC.
Position N 30°32' E 122°06'.
Warning: this ship's position is 9 days out of date.

Length 156.9 m; beam 23 m; draft 9.5 m.

Type: Ship. MMSI: 636016167.

Date/timePositionNaut miles runAvg speedWind from/ knotsBaromVisibWave heightAir tempDewpointWater temp
2019-Jun-11 08:13N 30°32' E 122°06'5 9.2
2019-Jun-11 07:38N 30°31' E 122°00'213.5
2019-Jun-11 07:30N 30°31' E 121°58'711.1
2019-Jun-11 06:55N 30°35' E 121°52'614.9
2019-Jun-11 06:30N 30°41' E 121°52'714.8
2019-Jun-11 06:01N 30°48' E 121°51'2 3.9
2019-Jun-11 05:28N 30°50' E 121°50'0 0.0
2019-Jun-11 04:58N 30°50' E 121°50'0 0.0
2019-Jun-11 04:28N 30°50' E 121°50'0 0.0
2019-Jun-11 03:58N 30°50' E 121°50'0 0.0
2019-Jun-11 03:28N 30°50' E 121°50'0 0.0
2019-Jun-11 02:58N 30°50' E 121°50'0 0.0
2019-Jun-11 02:28N 30°50' E 121°50'0 0.0
2019-Jun-11 01:58N 30°50' E 121°50'0 0.0
2019-Jun-11 01:28N 30°50' E 121°50'0 0.0
2019-Jun-11 00:58N 30°50' E 121°50'0 0.0
2019-Jun-11 00:28N 30°50' E 121°50'0 0.0
2019-Jun-10 23:58N 30°50' E 121°50'0 0.0
2019-Jun-10 23:28N 30°50' E 121°50'0 0.0
2019-Jun-10 22:46N 30°50' E 121°50'0 0.0
2019-Jun-10 22:22N 30°50' E 121°50'0 0.0
2019-Jun-10 21:52N 30°50' E 121°50'0 0.0
2019-Jun-10 21:25N 30°50' E 121°50'0 0.0
2019-Jun-10 20:58N 30°50' E 121°50'0 0.0
2019-Jun-10 20:28N 30°50' E 121°50'0 0.0
2019-Jun-10 19:58N 30°50' E 121°50'0 0.0
2019-Jun-10 19:28N 30°50' E 121°50'0 0.0
2019-Jun-10 18:58N 30°50' E 121°50'0 0.0
2019-Jun-10 18:28N 30°50' E 121°50'0 0.0
2019-Jun-10 17:58N 30°50' E 121°50'0 0.0
2019-Jun-10 17:28N 30°50' E 121°50'0 0.0
2019-Jun-10 16:58N 30°50' E 121°50'0 0.0
2019-Jun-10 16:28N 30°50' E 121°50'0 0.0
2019-Jun-10 15:58N 30°50' E 121°50'0 0.0
2019-Jun-10 15:28N 30°50' E 121°50'0 0.0
2019-Jun-10 14:58N 30°50' E 121°50'0 0.0
2019-Jun-10 14:28N 30°50' E 121°50'0 0.0
2019-Jun-10 13:58N 30°50' E 121°50'0 0.0
2019-Jun-10 13:28N 30°50' E 121°50'0 0.0
2019-Jun-10 12:58N 30°50' E 121°50'0 0.0
2019-Jun-10 12:28N 30°50' E 121°50'0 0.0
2019-Jun-10 11:58N 30°50' E 121°50'0 0.0
2019-Jun-10 11:28N 30°50' E 121°50'0 0.0
2019-Jun-10 10:58N 30°50' E 121°50'0 0.0
2019-Jun-10 10:25N 30°50' E 121°50'0 0.0
2019-Jun-10 09:58N 30°50' E 121°50'0 0.0
2019-Jun-10 09:28N 30°50' E 121°50'0 0.0
2019-Jun-10 08:58N 30°50' E 121°50'0 0.0
2019-Jun-10 08:28N 30°50' E 121°50'0 0.0
2019-Jun-10 07:58N 30°50' E 121°50'0 0.0
2019-Jun-10 07:28N 30°50' E 121°50'0 0.0
2019-Jun-10 07:01N 30°50' E 121°50'1 1.0
2019-Jun-10 06:31N 30°50' E 121°50'510.3
2019-Jun-10 06:00N 30°45' E 121°51'714.8
2019-Jun-10 05:30N 30°37' E 121°53'711.4
2019-Jun-10 04:52N 30°31' E 121°58'614.9
2019-Jun-10 04:29N 30°32' E 122°04'68314.2
2019-Jun-08 04:25N 33°56' E 134°55'614.9
2019-Jun-08 03:59N 34°02' E 134°56'815.8
2019-Jun-08 03:30N 34°10' E 134°58'612.3
2019-Jun-08 03:01N 34°16' E 134°58'612.7
2019-Jun-08 02:31N 34°22' E 135°00'612.7
2019-Jun-08 02:01N 34°27' E 135°05'815.4
2019-Jun-08 01:30N 34°32' E 135°12'714.0
2019-Jun-08 01:01N 34°36' E 135°19'5 9.4
2019-Jun-08 00:30N 34°36' E 135°25'2 2.8
2019-Jun-07 23:57N 34°35' E 135°27'0 0.0
2019-Jun-07 23:27N 34°35' E 135°27'0 0.0
2019-Jun-07 22:57N 34°35' E 135°27'0 0.0
2019-Jun-07 22:27N 34°35' E 135°27'0 0.0
2019-Jun-07 21:57N 34°35' E 135°27'0 0.0
2019-Jun-07 21:27N 34°35' E 135°27'0 0.0
2019-Jun-07 20:57N 34°35' E 135°27'0 0.0
2019-Jun-07 20:21N 34°35' E 135°27'0 0.0
2019-Jun-07 19:57N 34°35' E 135°27'0 0.0
2019-Jun-07 19:27N 34°35' E 135°27'0 0.0
2019-Jun-07 18:57N 34°35' E 135°27'0 0.0
2019-Jun-07 18:27N 34°35' E 135°27'0 0.0
2019-Jun-07 17:57N 34°35' E 135°27'0 0.0
2019-Jun-07 17:21N 34°35' E 135°27'0 0.0
2019-Jun-07 16:57N 34°35' E 135°27'0 0.0
2019-Jun-07 16:27N 34°35' E 135°27'0 0.0
2019-Jun-07 15:57N 34°35' E 135°27'0 0.0
2019-Jun-07 15:27N 34°35' E 135°27'0 0.0
2019-Jun-07 14:57N 34°35' E 135°27'0 0.0
2019-Jun-07 14:27N 34°35' E 135°27'0 0.0
2019-Jun-07 13:57N 34°35' E 135°27'0 0.0
2019-Jun-07 13:21N 34°35' E 135°27'0 0.0
2019-Jun-07 12:57N 34°35' E 135°27'0 0.0
2019-Jun-07 12:27N 34°35' E 135°27'0 0.0
2019-Jun-07 11:57N 34°35' E 135°27'0 0.0
2019-Jun-07 11:27N 34°35' E 135°27'0 0.0
2019-Jun-07 10:57N 34°35' E 135°27'0 0.0
2019-Jun-07 10:27N 34°35' E 135°27'0 0.0
2019-Jun-07 09:57N 34°35' E 135°27'0 0.0
2019-Jun-07 09:15N 34°35' E 135°27'0 0.0
2019-Jun-07 08:57N 34°35' E 135°27'0 0.0
2019-Jun-07 08:27N 34°35' E 135°27'0 0.0
2019-Jun-07 07:45N 34°35' E 135°27'0 0.0
2019-Jun-07 07:27N 34°35' E 135°27'0 0.0
2019-Jun-07 06:57N 34°35' E 135°27'0 0.0
2019-Jun-07 06:27N 34°35' E 135°27'0 0.0
2019-Jun-07 05:57N 34°35' E 135°27'0 0.0
2019-Jun-07 05:27N 34°35' E 135°27'0 0.0
2019-Jun-07 04:51N 34°35' E 135°27'0 0.0
2019-Jun-07 04:15N 34°35' E 135°27'0 0.0
2019-Jun-07 03:51N 34°35' E 135°27'0 0.0
2019-Jun-07 03:27N 34°35' E 135°27'0 0.0
2019-Jun-07 02:57N 34°35' E 135°27'0 0.0
2019-Jun-07 02:27N 34°35' E 135°27'0 0.0
2019-Jun-07 01:51N 34°35' E 135°27'0 0.0
2019-Jun-07 01:27N 34°35' E 135°27'0 0.0
2019-Jun-07 00:57N 34°35' E 135°27'0 0.0
2019-Jun-07 00:27N 34°35' E 135°27'0 0.0
2019-Jun-06 23:51N 34°35' E 135°27'0 0.0
2019-Jun-06 23:21N 34°35' E 135°27'0 0.0
2019-Jun-06 23:00N 34°35' E 135°27'2 5.0
2019-Jun-06 22:30N 34°36' E 135°24'510.7
2019-Jun-06 22:00N 34°34' E 135°18'815.6
2019-Jun-06 21:30N 34°28' E 135°12'815.1
2019-Jun-06 21:01N 34°23' E 135°05'714.6
2019-Jun-06 20:31N 34°17' E 134°60'714.2
2019-Jun-06 20:00N 34°10' E 134°59'4 8.3
2019-Jun-06 19:30N 34°06' E 134°58'611.2
2019-Jun-06 19:00N 34°01' E 134°57'612.9
2019-Jun-06 18:30N 33°54' E 134°56'3 5.2
2019-Jun-06 17:56N 33°52' E 134°56'1815.5
2019-Jun-06 16:47N 33°35' E 135°04'23615.0
2019-Jun-06 01:01N 34°58' E 139°32'314.7
2019-Jun-06 00:49N 34°60' E 139°35'515.6
2019-Jun-06 00:28N 35°03' E 139°40'714.4
2019-Jun-05 23:58N 35°09' E 139°45'511.9
2019-Jun-05 23:30N 35°15' E 139°46'612.0
2019-Jun-05 23:00N 35°20' E 139°43'611.7
2019-Jun-05 22:30N 35°26' E 139°42'4 7.1
2019-Jun-05 22:01N 35°28' E 139°40'1 1.1
2019-Jun-05 21:30N 35°29' E 139°39'0 0.0
2019-Jun-05 21:00N 35°29' E 139°39'0 0.0
2019-Jun-05 20:30N 35°29' E 139°39'0 0.0
2019-Jun-05 20:00N 35°29' E 139°39'0 0.0
2019-Jun-05 19:30N 35°29' E 139°39'0 0.0
2019-Jun-05 19:00N 35°29' E 139°39'0 0.0
2019-Jun-05 18:30N 35°29' E 139°39'0 0.0
2019-Jun-05 18:00N 35°29' E 139°39'0 0.0
2019-Jun-05 17:30N 35°29' E 139°39'0 0.0
2019-Jun-05 17:00N 35°29' E 139°39'0 0.0
2019-Jun-05 16:30N 35°29' E 139°39'0 0.0
2019-Jun-05 16:00N 35°29' E 139°39'0 0.0
2019-Jun-05 15:30N 35°29' E 139°39'0 0.0
2019-Jun-05 15:00N 35°29' E 139°39'0 0.0
2019-Jun-05 14:30N 35°29' E 139°39'0 0.0
2019-Jun-05 14:00N 35°29' E 139°39'0 0.0
2019-Jun-05 13:30N 35°29' E 139°39'0 0.0
2019-Jun-05 13:00N 35°29' E 139°39'0 0.0
2019-Jun-05 12:27N 35°29' E 139°39'0 0.0
2019-Jun-05 12:00N 35°29' E 139°39'0 0.0
2019-Jun-05 11:30N 35°29' E 139°39'0 0.0
2019-Jun-05 11:00N 35°29' E 139°39'0 0.0
2019-Jun-05 10:30N 35°29' E 139°39'0 0.0
2019-Jun-05 10:00N 35°29' E 139°39'0 0.0
2019-Jun-05 09:30N 35°29' E 139°39'0 0.0
2019-Jun-05 09:00N 35°29' E 139°39'0 0.0
2019-Jun-05 08:30N 35°29' E 139°39'0 0.0
2019-Jun-05 08:00N 35°29' E 139°39'0 0.0
2019-Jun-05 07:30N 35°29' E 139°39'0 0.0
2019-Jun-05 07:00N 35°29' E 139°39'0 0.0
2019-Jun-05 06:30N 35°29' E 139°39'0 0.0
2019-Jun-05 06:00N 35°29' E 139°39'0 0.0
2019-Jun-05 05:30N 35°29' E 139°39'0 0.0
2019-Jun-05 05:00N 35°29' E 139°39'0 0.0
2019-Jun-05 04:30N 35°29' E 139°39'0 0.0
2019-Jun-05 04:00N 35°29' E 139°39'0 0.0
2019-Jun-05 03:30N 35°29' E 139°39'0 0.0
2019-Jun-05 03:00N 35°29' E 139°39'0 0.0
2019-Jun-05 02:30N 35°29' E 139°39'0 0.0
2019-Jun-05 02:00N 35°29' E 139°39'0 0.0
2019-Jun-05 01:30N 35°29' E 139°39'0 0.0
2019-Jun-05 01:00N 35°29' E 139°39'0 0.0
2019-Jun-05 00:30N 35°29' E 139°39'0 0.0
2019-Jun-05 00:00N 35°29' E 139°39'0 0.0
2019-Jun-04 23:30N 35°29' E 139°39'0 0.0
2019-Jun-04 23:00N 35°29' E 139°39'0 0.0
2019-Jun-04 22:30N 35°29' E 139°39'0 0.0
2019-Jun-04 22:00N 35°29' E 139°39'0 0.0
2019-Jun-04 21:30N 35°29' E 139°39'0 0.0
2019-Jun-04 21:00N 35°29' E 139°39'0 0.0
2019-Jun-04 20:27N 35°29' E 139°39'0 0.0
2019-Jun-04 20:00N 35°29' E 139°39'0 0.0
2019-Jun-04 19:30N 35°29' E 139°39'0 0.0
2019-Jun-04 19:00N 35°29' E 139°39'0 0.0
2019-Jun-04 18:30N 35°29' E 139°39'0 0.0
2019-Jun-04 18:00N 35°29' E 139°39'0 0.0
2019-Jun-04 17:30N 35°29' E 139°39'0 0.0
2019-Jun-04 17:00N 35°29' E 139°39'0 0.0
2019-Jun-04 16:30N 35°29' E 139°39'0 0.0
2019-Jun-04 16:00N 35°29' E 139°39'0 0.0
2019-Jun-04 15:30N 35°29' E 139°39'0 0.0
2019-Jun-04 15:00N 35°29' E 139°39'0 0.0
2019-Jun-04 14:30N 35°29' E 139°39'0 0.0
2019-Jun-04 13:57N 35°29' E 139°39'0 0.0
2019-Jun-04 13:30N 35°29' E 139°39'0 0.0
2019-Jun-04 13:00N 35°29' E 139°39'0 0.0
2019-Jun-04 12:30N 35°29' E 139°39'0 0.0
2019-Jun-04 11:57N 35°29' E 139°39'0 0.0
2019-Jun-04 11:30N 35°29' E 139°39'0 0.0
2019-Jun-04 10:57N 35°29' E 139°39'0 0.0
2019-Jun-04 10:30N 35°29' E 139°39'0 0.0
2019-Jun-04 09:57N 35°29' E 139°39'0 0.0
2019-Jun-04 09:27N 35°29' E 139°39'0 0.0
2019-Jun-04 09:00N 35°29' E 139°39'0 0.0
2019-Jun-04 08:30N 35°29' E 139°39'0 0.0
2019-Jun-04 08:00N 35°29' E 139°39'0 0.0
2019-Jun-04 07:27N 35°29' E 139°39'0 0.0
2019-Jun-04 06:57N 35°29' E 139°39'0 0.0
2019-Jun-04 06:27N 35°29' E 139°39'0 0.0
2019-Jun-04 05:57N 35°29' E 139°39'0 0.0
2019-Jun-04 05:27N 35°29' E 139°39'0 0.0
2019-Jun-04 04:57N 35°29' E 139°39'0 0.0
2019-Jun-04 04:27N 35°29' E 139°39'0 0.0
2019-Jun-04 03:57N 35°29' E 139°39'0 0.0
2019-Jun-04 03:27N 35°29' E 139°39'0 0.0
2019-Jun-04 02:51N 35°29' E 139°39'0 0.0
2019-Jun-04 02:27N 35°29' E 139°39'0 0.0
2019-Jun-04 02:00N 35°29' E 139°39'0 0.0
2019-Jun-04 01:30N 35°29' E 139°39'0 0.0
2019-Jun-04 01:00N 35°29' E 139°39'0 0.0
2019-Jun-04 00:30N 35°29' E 139°39'0 0.0
2019-Jun-04 00:00N 35°29' E 139°39'0 0.0
2019-Jun-03 23:30N 35°29' E 139°39'0 0.0
2019-Jun-03 22:59N 35°29' E 139°39'0 0.0
2019-Jun-03 22:29N 35°29' E 139°39'0 0.0
2019-Jun-03 21:59N 35°29' E 139°39'0 0.0
2019-Jun-03 21:29N 35°29' E 139°39'0 0.0
2019-Jun-03 20:59N 35°29' E 139°39'0 0.0
2019-Jun-03 20:29N 35°29' E 139°39'0 0.0
2019-Jun-03 19:59N 35°29' E 139°39'0 0.0
2019-Jun-03 19:29N 35°29' E 139°39'0 0.0
2019-Jun-03 18:59N 35°29' E 139°39'0 0.0
2019-Jun-03 18:29N 35°29' E 139°39'0 0.0
2019-Jun-03 17:59N 35°29' E 139°39'0 0.0
2019-Jun-03 17:29N 35°29' E 139°39'0 0.0
2019-Jun-03 16:59N 35°29' E 139°39'0 0.0
2019-Jun-03 16:29N 35°29' E 139°39'0 0.0
2019-Jun-03 15:59N 35°29' E 139°39'0 0.0
2019-Jun-03 15:29N 35°29' E 139°39'0 0.0
2019-Jun-03 14:59N 35°29' E 139°39'0 0.0
2019-Jun-03 14:29N 35°29' E 139°39'0 0.0
2019-Jun-03 13:59N 35°29' E 139°39'0 0.0
2019-Jun-03 13:29N 35°29' E 139°39'0 0.0
2019-Jun-03 12:59N 35°29' E 139°39'0 0.0
2019-Jun-03 12:29N 35°29' E 139°39'0 0.0
2019-Jun-03 11:59N 35°29' E 139°39'0 0.0
2019-Jun-03 11:29N 35°29' E 139°39'0 0.0
2019-Jun-03 10:59N 35°29' E 139°39'0 0.0
2019-Jun-03 10:29N 35°29' E 139°39'0 0.0
2019-Jun-03 09:59N 35°29' E 139°39'0 0.0
2019-Jun-03 09:29N 35°29' E 139°39'0 0.0
2019-Jun-03 08:59N 35°29' E 139°39'0 0.0
2019-Jun-03 08:29N 35°29' E 139°39'0 0.0
2019-Jun-03 07:59N 35°29' E 139°39'0 0.0
2019-Jun-03 07:29N 35°29' E 139°39'0 0.0
2019-Jun-03 06:59N 35°29' E 139°39'0 0.0
2019-Jun-03 06:29N 35°29' E 139°39'0 0.0
2019-Jun-03 05:59N 35°29' E 139°39'0 0.0
2019-Jun-03 05:30N 35°29' E 139°39'0 0.4
2019-Jun-03 05:00N 35°28' E 139°39'3 5.3
2019-Jun-03 04:30N 35°27' E 139°42'4 7.9
2019-Jun-03 04:00N 35°23' E 139°43'612.5
2019-Jun-03 03:30N 35°17' E 139°45'612.3
2019-Jun-03 03:00N 35°11' E 139°47'5 8.5
2019-Jun-03 02:28N 35°06' E 139°45'5 9.8
2019-Jun-03 01:57N 35°02' E 139°42'  
Track history (hours):
 
Tides and Currents Weather Stations Pressure Air Temp Water Temp Dewpoint Dewpoint Depression Visibility Wind Speed Wind Dir Waves Ship Positions

Hansa Visby

Last reported at 2019-Jun-11 08:13 UTC. Time now 2019-Jun-20 17:49 UTC.
Position N 30°32' E 122°06'.
Warning: this ship's position is 9 days out of date.

Length 156.9 m; beam 23 m; draft 9.5 m.

Type: Ship. MMSI: 636016167.

Date/timePositionNaut miles runAvg speedWind from/ knotsBaromVisibWave heightAir tempDewpointWater temp
2019-Jun-11 08:13N 30°32' E 122°06'5 9.2
2019-Jun-11 07:38N 30°31' E 122°00'213.5
2019-Jun-11 07:30N 30°31' E 121°58'711.1
2019-Jun-11 06:55N 30°35' E 121°52'614.9
2019-Jun-11 06:30N 30°41' E 121°52'714.8
2019-Jun-11 06:01N 30°48' E 121°51'2 3.9
2019-Jun-11 05:28N 30°50' E 121°50'0 0.0
2019-Jun-11 04:58N 30°50' E 121°50'0 0.0
2019-Jun-11 04:28N 30°50' E 121°50'0 0.0
2019-Jun-11 03:58N 30°50' E 121°50'0 0.0
2019-Jun-11 03:28N 30°50' E 121°50'0 0.0
2019-Jun-11 02:58N 30°50' E 121°50'0 0.0
2019-Jun-11 02:28N 30°50' E 121°50'0 0.0
2019-Jun-11 01:58N 30°50' E 121°50'0 0.0
2019-Jun-11 01:28N 30°50' E 121°50'0 0.0
2019-Jun-11 00:58N 30°50' E 121°50'0 0.0
2019-Jun-11 00:28N 30°50' E 121°50'0 0.0
2019-Jun-10 23:58N 30°50' E 121°50'0 0.0
2019-Jun-10 23:28N 30°50' E 121°50'0 0.0
2019-Jun-10 22:46N 30°50' E 121°50'0 0.0
2019-Jun-10 22:22N 30°50' E 121°50'0 0.0
2019-Jun-10 21:52N 30°50' E 121°50'0 0.0
2019-Jun-10 21:25N 30°50' E 121°50'0 0.0
2019-Jun-10 20:58N 30°50' E 121°50'0 0.0
2019-Jun-10 20:28N 30°50' E 121°50'0 0.0
2019-Jun-10 19:58N 30°50' E 121°50'0 0.0
2019-Jun-10 19:28N 30°50' E 121°50'0 0.0
2019-Jun-10 18:58N 30°50' E 121°50'0 0.0
2019-Jun-10 18:28N 30°50' E 121°50'0 0.0
2019-Jun-10 17:58N 30°50' E 121°50'0 0.0
2019-Jun-10 17:28N 30°50' E 121°50'0 0.0
2019-Jun-10 16:58N 30°50' E 121°50'0 0.0
2019-Jun-10 16:28N 30°50' E 121°50'0 0.0
2019-Jun-10 15:58N 30°50' E 121°50'0 0.0
2019-Jun-10 15:28N 30°50' E 121°50'0 0.0
2019-Jun-10 14:58N 30°50' E 121°50'0 0.0
2019-Jun-10 14:28N 30°50' E 121°50'0 0.0
2019-Jun-10 13:58N 30°50' E 121°50'0 0.0
2019-Jun-10 13:28N 30°50' E 121°50'0 0.0
2019-Jun-10 12:58N 30°50' E 121°50'0 0.0
2019-Jun-10 12:28N 30°50' E 121°50'0 0.0
2019-Jun-10 11:58N 30°50' E 121°50'0 0.0
2019-Jun-10 11:28N 30°50' E 121°50'0 0.0
2019-Jun-10 10:58N 30°50' E 121°50'0 0.0
2019-Jun-10 10:25N 30°50' E 121°50'0 0.0
2019-Jun-10 09:58N 30°50' E 121°50'0 0.0
2019-Jun-10 09:28N 30°50' E 121°50'0 0.0
2019-Jun-10 08:58N 30°50' E 121°50'0 0.0
2019-Jun-10 08:28N 30°50' E 121°50'0 0.0
2019-Jun-10 07:58N 30°50' E 121°50'0 0.0
2019-Jun-10 07:28N 30°50' E 121°50'0 0.0
2019-Jun-10 07:01N 30°50' E 121°50'1 1.0
2019-Jun-10 06:31N 30°50' E 121°50'510.3
2019-Jun-10 06:00N 30°45' E 121°51'714.8
2019-Jun-10 05:30N 30°37' E 121°53'711.4
2019-Jun-10 04:52N 30°31' E 121°58'614.9
2019-Jun-10 04:29N 30°32' E 122°04'68314.2
2019-Jun-08 04:25N 33°56' E 134°55'614.9
2019-Jun-08 03:59N 34°02' E 134°56'815.8
2019-Jun-08 03:30N 34°10' E 134°58'612.3
2019-Jun-08 03:01N 34°16' E 134°58'612.7
2019-Jun-08 02:31N 34°22' E 135°00'612.7
2019-Jun-08 02:01N 34°27' E 135°05'815.4
2019-Jun-08 01:30N 34°32' E 135°12'714.0
2019-Jun-08 01:01N 34°36' E 135°19'5 9.4
2019-Jun-08 00:30N 34°36' E 135°25'2 2.8
2019-Jun-07 23:57N 34°35' E 135°27'0 0.0
2019-Jun-07 23:27N 34°35' E 135°27'0 0.0
2019-Jun-07 22:57N 34°35' E 135°27'0 0.0
2019-Jun-07 22:27N 34°35' E 135°27'0 0.0
2019-Jun-07 21:57N 34°35' E 135°27'0 0.0
2019-Jun-07 21:27N 34°35' E 135°27'0 0.0
2019-Jun-07 20:57N 34°35' E 135°27'0 0.0
2019-Jun-07 20:21N 34°35' E 135°27'0 0.0
2019-Jun-07 19:57N 34°35' E 135°27'0 0.0
2019-Jun-07 19:27N 34°35' E 135°27'0 0.0
2019-Jun-07 18:57N 34°35' E 135°27'0 0.0
2019-Jun-07 18:27N 34°35' E 135°27'0 0.0
2019-Jun-07 17:57N 34°35' E 135°27'0 0.0
2019-Jun-07 17:21N 34°35' E 135°27'0 0.0
2019-Jun-07 16:57N 34°35' E 135°27'0 0.0
2019-Jun-07 16:27N 34°35' E 135°27'0 0.0
2019-Jun-07 15:57N 34°35' E 135°27'0 0.0
2019-Jun-07 15:27N 34°35' E 135°27'0 0.0
2019-Jun-07 14:57N 34°35' E 135°27'0 0.0
2019-Jun-07 14:27N 34°35' E 135°27'0 0.0
2019-Jun-07 13:57N 34°35' E 135°27'0 0.0
2019-Jun-07 13:21N 34°35' E 135°27'0 0.0
2019-Jun-07 12:57N 34°35' E 135°27'0 0.0
2019-Jun-07 12:27N 34°35' E 135°27'0 0.0
2019-Jun-07 11:57N 34°35' E 135°27'0 0.0
2019-Jun-07 11:27N 34°35' E 135°27'0 0.0
2019-Jun-07 10:57N 34°35' E 135°27'0 0.0
2019-Jun-07 10:27N 34°35' E 135°27'0 0.0
2019-Jun-07 09:57N 34°35' E 135°27'0 0.0
2019-Jun-07 09:15N 34°35' E 135°27'0 0.0
2019-Jun-07 08:57N 34°35' E 135°27'0 0.0
2019-Jun-07 08:27N 34°35' E 135°27'0 0.0
2019-Jun-07 07:45N 34°35' E 135°27'0 0.0
2019-Jun-07 07:27N 34°35' E 135°27'0 0.0
2019-Jun-07 06:57N 34°35' E 135°27'0 0.0
2019-Jun-07 06:27N 34°35' E 135°27'0 0.0
2019-Jun-07 05:57N 34°35' E 135°27'0 0.0
2019-Jun-07 05:27N 34°35' E 135°27'0 0.0
2019-Jun-07 04:51N 34°35' E 135°27'0 0.0
2019-Jun-07 04:15N 34°35' E 135°27'0 0.0
2019-Jun-07 03:51N 34°35' E 135°27'0 0.0
2019-Jun-07 03:27N 34°35' E 135°27'0 0.0
2019-Jun-07 02:57N 34°35' E 135°27'0 0.0
2019-Jun-07 02:27N 34°35' E 135°27'0 0.0
2019-Jun-07 01:51N 34°35' E 135°27'0 0.0
2019-Jun-07 01:27N 34°35' E 135°27'0 0.0
2019-Jun-07 00:57N 34°35' E 135°27'0 0.0
2019-Jun-07 00:27N 34°35' E 135°27'0 0.0
2019-Jun-06 23:51N 34°35' E 135°27'0 0.0
2019-Jun-06 23:21N 34°35' E 135°27'0 0.0
2019-Jun-06 23:00N 34°35' E 135°27'2 5.0
2019-Jun-06 22:30N 34°36' E 135°24'510.7
2019-Jun-06 22:00N 34°34' E 135°18'815.6
2019-Jun-06 21:30N 34°28' E 135°12'815.1
2019-Jun-06 21:01N 34°23' E 135°05'714.6
2019-Jun-06 20:31N 34°17' E 134°60'714.2
2019-Jun-06 20:00N 34°10' E 134°59'4 8.3
2019-Jun-06 19:30N 34°06' E 134°58'611.2
2019-Jun-06 19:00N 34°01' E 134°57'612.9
2019-Jun-06 18:30N 33°54' E 134°56'3 5.2
2019-Jun-06 17:56N 33°52' E 134°56'1815.5
2019-Jun-06 16:47N 33°35' E 135°04'23615.0
2019-Jun-06 01:01N 34°58' E 139°32'314.7
2019-Jun-06 00:49N 34°60' E 139°35'515.6
2019-Jun-06 00:28N 35°03' E 139°40'714.4
2019-Jun-05 23:58N 35°09' E 139°45'511.9
2019-Jun-05 23:30N 35°15' E 139°46'612.0
2019-Jun-05 23:00N 35°20' E 139°43'611.7
2019-Jun-05 22:30N 35°26' E 139°42'4 7.1
2019-Jun-05 22:01N 35°28' E 139°40'1 1.1
2019-Jun-05 21:30N 35°29' E 139°39'0 0.0
2019-Jun-05 21:00N 35°29' E 139°39'0 0.0
2019-Jun-05 20:30N 35°29' E 139°39'0 0.0
2019-Jun-05 20:00N 35°29' E 139°39'0 0.0
2019-Jun-05 19:30N 35°29' E 139°39'0 0.0
2019-Jun-05 19:00N 35°29' E 139°39'0 0.0
2019-Jun-05 18:30N 35°29' E 139°39'0 0.0
2019-Jun-05 18:00N 35°29' E 139°39'0 0.0
2019-Jun-05 17:30N 35°29' E 139°39'0 0.0
2019-Jun-05 17:00N 35°29' E 139°39'0 0.0
2019-Jun-05 16:30N 35°29' E 139°39'0 0.0
2019-Jun-05 16:00N 35°29' E 139°39'0 0.0
2019-Jun-05 15:30N 35°29' E 139°39'0 0.0
2019-Jun-05 15:00N 35°29' E 139°39'0 0.0
2019-Jun-05 14:30N 35°29' E 139°39'0 0.0
2019-Jun-05 14:00N 35°29' E 139°39'0 0.0
2019-Jun-05 13:30N 35°29' E 139°39'0 0.0
2019-Jun-05 13:00N 35°29' E 139°39'0 0.0
2019-Jun-05 12:27N 35°29' E 139°39'0 0.0
2019-Jun-05 12:00N 35°29' E 139°39'0 0.0
2019-Jun-05 11:30N 35°29' E 139°39'0 0.0
2019-Jun-05 11:00N 35°29' E 139°39'0 0.0
2019-Jun-05 10:30N 35°29' E 139°39'0 0.0
2019-Jun-05 10:00N 35°29' E 139°39'0 0.0
2019-Jun-05 09:30N 35°29' E 139°39'0 0.0
2019-Jun-05 09:00N 35°29' E 139°39'0 0.0
2019-Jun-05 08:30N 35°29' E 139°39'0 0.0
2019-Jun-05 08:00N 35°29' E 139°39'0 0.0
2019-Jun-05 07:30N 35°29' E 139°39'0 0.0
2019-Jun-05 07:00N 35°29' E 139°39'0 0.0
2019-Jun-05 06:30N 35°29' E 139°39'0 0.0
2019-Jun-05 06:00N 35°29' E 139°39'0 0.0
2019-Jun-05 05:30N 35°29' E 139°39'0 0.0
2019-Jun-05 05:00N 35°29' E 139°39'0 0.0
2019-Jun-05 04:30N 35°29' E 139°39'0 0.0
2019-Jun-05 04:00N 35°29' E 139°39'0 0.0
2019-Jun-05 03:30N 35°29' E 139°39'0 0.0
2019-Jun-05 03:00N 35°29' E 139°39'0 0.0
2019-Jun-05 02:30N 35°29' E 139°39'0 0.0
2019-Jun-05 02:00N 35°29' E 139°39'0 0.0
2019-Jun-05 01:30N 35°29' E 139°39'0 0.0
2019-Jun-05 01:00N 35°29' E 139°39'0 0.0
2019-Jun-05 00:30N 35°29' E 139°39'0 0.0
2019-Jun-05 00:00N 35°29' E 139°39'0 0.0
2019-Jun-04 23:30N 35°29' E 139°39'0 0.0
2019-Jun-04 23:00N 35°29' E 139°39'0 0.0
2019-Jun-04 22:30N 35°29' E 139°39'0 0.0
2019-Jun-04 22:00N 35°29' E 139°39'0 0.0
2019-Jun-04 21:30N 35°29' E 139°39'0 0.0
2019-Jun-04 21:00N 35°29' E 139°39'0 0.0
2019-Jun-04 20:27N 35°29' E 139°39'0 0.0
2019-Jun-04 20:00N 35°29' E 139°39'0 0.0
2019-Jun-04 19:30N 35°29' E 139°39'0 0.0
2019-Jun-04 19:00N 35°29' E 139°39'0 0.0
2019-Jun-04 18:30N 35°29' E 139°39'0 0.0
2019-Jun-04 18:00N 35°29' E 139°39'0 0.0
2019-Jun-04 17:30N 35°29' E 139°39'0 0.0
2019-Jun-04 17:00N 35°29' E 139°39'0 0.0
2019-Jun-04 16:30N 35°29' E 139°39'0 0.0
2019-Jun-04 16:00N 35°29' E 139°39'0 0.0
2019-Jun-04 15:30N 35°29' E 139°39'0 0.0
2019-Jun-04 15:00N 35°29' E 139°39'0 0.0
2019-Jun-04 14:30N 35°29' E 139°39'0 0.0
2019-Jun-04 13:57N 35°29' E 139°39'0 0.0
2019-Jun-04 13:30N 35°29' E 139°39'0 0.0
2019-Jun-04 13:00N 35°29' E 139°39'0 0.0
2019-Jun-04 12:30N 35°29' E 139°39'0 0.0
2019-Jun-04 11:57N 35°29' E 139°39'0 0.0
2019-Jun-04 11:30N 35°29' E 139°39'0 0.0
2019-Jun-04 10:57N 35°29' E 139°39'0 0.0
2019-Jun-04 10:30N 35°29' E 139°39'0 0.0
2019-Jun-04 09:57N 35°29' E 139°39'0 0.0
2019-Jun-04 09:27N 35°29' E 139°39'0 0.0
2019-Jun-04 09:00N 35°29' E 139°39'0 0.0
2019-Jun-04 08:30N 35°29' E 139°39'0 0.0
2019-Jun-04 08:00N 35°29' E 139°39'0 0.0
2019-Jun-04 07:27N 35°29' E 139°39'0 0.0
2019-Jun-04 06:57N 35°29' E 139°39'0 0.0
2019-Jun-04 06:27N 35°29' E 139°39'0 0.0
2019-Jun-04 05:57N 35°29' E 139°39'0 0.0
2019-Jun-04 05:27N 35°29' E 139°39'0 0.0
2019-Jun-04 04:57N 35°29' E 139°39'0 0.0
2019-Jun-04 04:27N 35°29' E 139°39'0 0.0
2019-Jun-04 03:57N 35°29' E 139°39'0 0.0
2019-Jun-04 03:27N 35°29' E 139°39'0 0.0
2019-Jun-04 02:51N 35°29' E 139°39'0 0.0
2019-Jun-04 02:27N 35°29' E 139°39'0 0.0
2019-Jun-04 02:00N 35°29' E 139°39'0 0.0
2019-Jun-04 01:30N 35°29' E 139°39'0 0.0
2019-Jun-04 01:00N 35°29' E 139°39'0 0.0
2019-Jun-04 00:30N 35°29' E 139°39'0 0.0
2019-Jun-04 00:00N 35°29' E 139°39'0 0.0
2019-Jun-03 23:30N 35°29' E 139°39'0 0.0
2019-Jun-03 22:59N 35°29' E 139°39'0 0.0
2019-Jun-03 22:29N 35°29' E 139°39'0 0.0
2019-Jun-03 21:59N 35°29' E 139°39'0 0.0
2019-Jun-03 21:29N 35°29' E 139°39'0 0.0
2019-Jun-03 20:59N 35°29' E 139°39'0 0.0
2019-Jun-03 20:29N 35°29' E 139°39'0 0.0
2019-Jun-03 19:59N 35°29' E 139°39'0 0.0
2019-Jun-03 19:29N 35°29' E 139°39'0 0.0
2019-Jun-03 18:59N 35°29' E 139°39'0 0.0
2019-Jun-03 18:29N 35°29' E 139°39'0 0.0
2019-Jun-03 17:59N 35°29' E 139°39'0 0.0
2019-Jun-03 17:29N 35°29' E 139°39'0 0.0
2019-Jun-03 16:59N 35°29' E 139°39'0 0.0
2019-Jun-03 16:29N 35°29' E 139°39'0 0.0
2019-Jun-03 15:59N 35°29' E 139°39'0 0.0
2019-Jun-03 15:29N 35°29' E 139°39'0 0.0
2019-Jun-03 14:59N 35°29' E 139°39'0 0.0
2019-Jun-03 14:29N 35°29' E 139°39'0 0.0
2019-Jun-03 13:59N 35°29' E 139°39'0 0.0
2019-Jun-03 13:29N 35°29' E 139°39'0 0.0
2019-Jun-03 12:59N 35°29' E 139°39'0 0.0
2019-Jun-03 12:29N 35°29' E 139°39'0 0.0
2019-Jun-03 11:59N 35°29' E 139°39'0 0.0
2019-Jun-03 11:29N 35°29' E 139°39'0 0.0
2019-Jun-03 10:59N 35°29' E 139°39'0 0.0
2019-Jun-03 10:29N 35°29' E 139°39'0 0.0
2019-Jun-03 09:59N 35°29' E 139°39'0 0.0
2019-Jun-03 09:29N 35°29' E 139°39'0 0.0
2019-Jun-03 08:59N 35°29' E 139°39'0 0.0
2019-Jun-03 08:29N 35°29' E 139°39'0 0.0
2019-Jun-03 07:59N 35°29' E 139°39'0 0.0
2019-Jun-03 07:29N 35°29' E 139°39'0 0.0
2019-Jun-03 06:59N 35°29' E 139°39'0 0.0
2019-Jun-03 06:29N 35°29' E 139°39'0 0.0
2019-Jun-03 05:59N 35°29' E 139°39'0 0.0
2019-Jun-03 05:30N 35°29' E 139°39'0 0.4
2019-Jun-03 05:00N 35°28' E 139°39'3 5.3
2019-Jun-03 04:30N 35°27' E 139°42'4 7.9
2019-Jun-03 04:00N 35°23' E 139°43'612.5
2019-Jun-03 03:30N 35°17' E 139°45'612.3
2019-Jun-03 03:00N 35°11' E 139°47'5 8.5
2019-Jun-03 02:28N 35°06' E 139°45'5 9.8
2019-Jun-03 01:57N 35°02' E 139°42'  

Dump ship's entire track history